sensor_id;sensor_type;location;lat;lon;timestamp;pressure;altitude;pressure_sealevel;temperature;humidity
46598;BME280;32318;48.858;8.252;2023-04-29T00:07:42;99993.47;;;14.92;91.91
46598;BME280;32318;48.858;8.252;2023-04-29T00:15:43;99985.19;;;14.86;91.81
46598;BME280;32318;48.858;8.252;2023-04-29T00:23:43;99994.84;;;14.81;92.00
46598;BME280;32318;48.858;8.252;2023-04-29T00:31:43;99997.50;;;14.74;92.24
46598;BME280;32318;48.858;8.252;2023-04-29T00:39:44;100004.50;;;14.68;92.75
46598;BME280;32318;48.858;8.252;2023-04-29T00:47:44;99998.69;;;14.65;92.81
46598;BME280;32318;48.858;8.252;2023-04-29T00:55:45;100004.81;;;14.58;92.81
46598;BME280;32318;48.858;8.252;2023-04-29T01:03:46;100010.59;;;14.55;93.06
46598;BME280;32318;48.858;8.252;2023-04-29T01:20:26;100012.16;;;14.43;92.91
46598;BME280;32318;48.858;8.252;2023-04-29T01:37:27;100003.38;;;14.27;93.75
46598;BME280;32318;48.858;8.252;2023-04-29T01:45:22;100002.91;;;14.24;93.67
46598;BME280;32318;48.858;8.252;2023-04-29T01:53:23;100011.16;;;14.22;93.86
46598;BME280;32318;48.858;8.252;2023-04-29T02:01:23;100021.06;;;14.22;93.33
46598;BME280;32318;48.858;8.252;2023-04-29T02:09:23;100015.69;;;14.22;93.64
46598;BME280;32318;48.858;8.252;2023-04-29T02:17:23;100014.25;;;14.19;93.46
46598;BME280;32318;48.858;8.252;2023-04-29T02:25:24;100023.06;;;14.13;93.69
46598;BME280;32318;48.858;8.252;2023-04-29T02:33:24;100035.66;;;14.12;93.82
46598;BME280;32318;48.858;8.252;2023-04-29T02:41:24;100041.16;;;14.04;93.76
46598;BME280;32318;48.858;8.252;2023-04-29T02:49:25;100048.88;;;13.92;93.12
46598;BME280;32318;48.858;8.252;2023-04-29T02:57:25;100048.72;;;13.79;93.09
46598;BME280;32318;48.858;8.252;2023-04-29T03:05:26;100054.63;;;13.68;92.93
46598;BME280;32318;48.858;8.252;2023-04-29T03:13:26;100055.34;;;13.61;92.93
46598;BME280;32318;48.858;8.252;2023-04-29T03:21:26;100050.50;;;13.50;92.57
46598;BME280;32318;48.858;8.252;2023-04-29T03:29:31;100048.72;;;13.42;92.32
46598;BME280;32318;48.858;8.252;2023-04-29T03:37:32;100056.19;;;13.32;92.52
46598;BME280;32318;48.858;8.252;2023-04-29T03:45:32;100066.66;;;13.27;92.70
46598;BME280;32318;48.858;8.252;2023-04-29T03:53:32;100080.97;;;13.19;92.59
46598;BME280;32318;48.858;8.252;2023-04-29T04:01:32;100085.53;;;13.03;91.91
46598;BME280;32318;48.858;8.252;2023-04-29T04:09:33;100081.66;;;12.91;91.76
46598;BME280;32318;48.858;8.252;2023-04-29T04:17:33;100090.41;;;12.85;92.16
46598;BME280;32318;48.858;8.252;2023-04-29T04:25:33;100111.56;;;12.80;92.10
46598;BME280;32318;48.858;8.252;2023-04-29T04:33:33;100118.66;;;12.73;91.46
46598;BME280;32318;48.858;8.252;2023-04-29T04:41:34;100127.13;;;12.61;91.58
46598;BME280;32318;48.858;8.252;2023-04-29T04:49:34;100147.34;;;12.64;91.75
46598;BME280;32318;48.858;8.252;2023-04-29T04:57:34;100150.94;;;12.56;91.14
46598;BME280;32318;48.858;8.252;2023-04-29T05:05:35;100156.78;;;12.60;90.88
46598;BME280;32318;48.858;8.252;2023-04-29T05:13:35;100164.63;;;12.61;90.54
46598;BME280;32318;48.858;8.252;2023-04-29T05:21:35;100167.75;;;12.65;90.61
46598;BME280;32318;48.858;8.252;2023-04-29T05:29:36;100173.59;;;12.68;89.60
46598;BME280;32318;48.858;8.252;2023-04-29T05:37:37;100175.19;;;12.78;90.01
46598;BME280;32318;48.858;8.252;2023-04-29T05:45:37;100186.63;;;12.95;89.24
46598;BME280;32318;48.858;8.252;2023-04-29T05:53:37;100197.28;;;13.18;87.73
46598;BME280;32318;48.858;8.252;2023-04-29T06:01:39;100211.53;;;13.57;86.59
46598;BME280;32318;48.858;8.252;2023-04-29T06:09:39;100222.47;;;14.22;83.71
46598;BME280;32318;48.858;8.252;2023-04-29T06:17:41;100232.75;;;14.18;82.45
46598;BME280;32318;48.858;8.252;2023-04-29T06:25:42;100230.75;;;14.42;80.18
46598;BME280;32318;48.858;8.252;2023-04-29T06:33:42;100246.75;;;14.50;79.50
46598;BME280;32318;48.858;8.252;2023-04-29T06:41:42;100248.28;;;14.74;79.10
46598;BME280;32318;48.858;8.252;2023-04-29T06:49:42;100258.13;;;14.67;77.71
46598;BME280;32318;48.858;8.252;2023-04-29T06:57:43;100264.81;;;14.56;78.13
46598;BME280;32318;48.858;8.252;2023-04-29T07:05:43;100271.09;;;14.64;78.50
46598;BME280;32318;48.858;8.252;2023-04-29T07:13:46;100281.28;;;14.53;78.39
46598;BME280;32318;48.858;8.252;2023-04-29T07:21:47;100287.16;;;14.42;77.40
46598;BME280;32318;48.858;8.252;2023-04-29T07:29:47;100293.97;;;14.74;77.25
46598;BME280;32318;48.858;8.252;2023-04-29T07:37:47;100301.66;;;14.63;76.08
46598;BME280;32318;48.858;8.252;2023-04-29T07:45:48;100305.06;;;14.71;75.22
46598;BME280;32318;48.858;8.252;2023-04-29T07:53:48;100306.41;;;15.19;75.73
46598;BME280;32318;48.858;8.252;2023-04-29T08:01:48;100307.53;;;15.10;73.39
46598;BME280;32318;48.858;8.252;2023-04-29T08:09:48;100318.03;;;15.26;74.76
46598;BME280;32318;48.858;8.252;2023-04-29T08:17:49;100317.94;;;15.13;73.45
46598;BME280;32318;48.858;8.252;2023-04-29T08:25:49;100324.94;;;15.14;72.14
46598;BME280;32318;48.858;8.252;2023-04-29T08:33:51;100315.56;;;15.25;70.54
46598;BME280;32318;48.858;8.252;2023-04-29T08:41:51;100333.03;;;15.35;72.09
46598;BME280;32318;48.858;8.252;2023-04-29T08:49:53;100330.41;;;15.20;71.96
46598;BME280;32318;48.858;8.252;2023-04-29T08:57:54;100337.38;;;14.93;71.03
46598;BME280;32318;48.858;8.252;2023-04-29T09:05:59;100339.97;;;14.86;71.38
46598;BME280;32318;48.858;8.252;2023-04-29T09:14:01;100339.97;;;14.86;71.67
46598;BME280;32318;48.858;8.252;2023-04-29T09:22:03;100350.72;;;14.86;72.90
46598;BME280;32318;48.858;8.252;2023-04-29T09:30:07;100356.75;;;14.88;72.50
46598;BME280;32318;48.858;8.252;2023-04-29T09:38:13;100350.69;;;15.01;69.60
46598;BME280;32318;48.858;8.252;2023-04-29T09:46:14;100355.63;;;15.19;68.65
46598;BME280;32318;48.858;8.252;2023-04-29T09:54:22;100354.53;;;15.35;68.41
46598;BME280;32318;48.858;8.252;2023-04-29T10:02:23;100358.84;;;15.30;69.12
46598;BME280;32318;48.858;8.252;2023-04-29T10:10:25;100350.69;;;15.23;69.43
46598;BME280;32318;48.858;8.252;2023-04-29T10:18:35;100355.00;;;15.39;66.91
46598;BME280;32318;48.858;8.252;2023-04-29T10:26:38;100350.06;;;15.71;67.22
46598;BME280;32318;48.858;8.252;2023-04-29T10:34:41;100342.69;;;16.08;65.75
46598;BME280;32318;48.858;8.252;2023-04-29T10:42:45;100342.84;;;16.35;65.50
46598;BME280;32318;48.858;8.252;2023-04-29T10:58:46;100334.88;;;16.62;64.39
46598;BME280;32318;48.858;8.252;2023-04-29T11:06:51;100330.09;;;16.57;62.84
46598;BME280;32318;48.858;8.252;2023-04-29T11:14:52;100326.75;;;16.55;61.94
46598;BME280;32318;48.858;8.252;2023-04-29T11:22:53;100323.88;;;16.63;65.26
46598;BME280;32318;48.858;8.252;2023-04-29T11:30:55;100322.88;;;16.78;63.29
46598;BME280;32318;48.858;8.252;2023-04-29T11:38:56;100332.66;;;16.86;63.11
46598;BME280;32318;48.858;8.252;2023-04-29T11:47:04;100348.00;;;16.78;64.68
46598;BME280;32318;48.858;8.252;2023-04-29T11:55:07;100352.44;;;16.09;62.84
46598;BME280;32318;48.858;8.252;2023-04-29T12:03:19;100353.69;;;15.35;64.43
46598;BME280;32318;48.858;8.252;2023-04-29T12:11:21;100363.56;;;15.28;63.77
46598;BME280;32318;48.858;8.252;2023-04-29T12:19:23;100366.06;;;15.08;64.75
46598;BME280;32318;48.858;8.252;2023-04-29T12:27:24;100376.41;;;14.89;65.71
46598;BME280;32318;48.858;8.252;2023-04-29T12:35:26;100374.28;;;14.84;66.30
46598;BME280;32318;48.858;8.252;2023-04-29T12:43:26;100369.34;;;14.88;66.54
46598;BME280;32318;48.858;8.252;2023-04-29T12:51:27;100375.25;;;14.98;65.95
46598;BME280;32318;48.858;8.252;2023-04-29T12:59:27;100377.88;;;14.92;66.03
46598;BME280;32318;48.858;8.252;2023-04-29T13:07:27;100383.91;;;14.94;65.74
46598;BME280;32318;48.858;8.252;2023-04-29T13:15:28;100384.00;;;14.85;65.62
46598;BME280;32318;48.858;8.252;2023-04-29T13:23:28;100389.78;;;14.82;66.04
46598;BME280;32318;48.858;8.252;2023-04-29T13:31:28;100391.59;;;14.97;65.02
46598;BME280;32318;48.858;8.252;2023-04-29T13:39:29;100387.22;;;14.96;65.76
46598;BME280;32318;48.858;8.252;2023-04-29T13:47:29;100393.16;;;15.06;65.44
46598;BME280;32318;48.858;8.252;2023-04-29T13:55:29;100398.13;;;15.09;64.67
46598;BME280;32318;48.858;8.252;2023-04-29T14:03:30;100396.84;;;15.05;65.53
46598;BME280;32318;48.858;8.252;2023-04-29T14:11:30;100403.50;;;15.09;64.76
46598;BME280;32318;48.858;8.252;2023-04-29T14:19:35;100403.59;;;15.16;64.84
46598;BME280;32318;48.858;8.252;2023-04-29T14:27:35;100410.63;;;15.17;64.34
46598;BME280;32318;48.858;8.252;2023-04-29T14:35:35;100417.75;;;15.25;64.09
46598;BME280;32318;48.858;8.252;2023-04-29T14:43:36;100424.34;;;15.22;63.28
46598;BME280;32318;48.858;8.252;2023-04-29T14:51:36;100437.16;;;15.20;62.82
46598;BME280;32318;48.858;8.252;2023-04-29T14:59:36;100438.00;;;15.05;63.61
46598;BME280;32318;48.858;8.252;2023-04-29T15:07:42;100444.25;;;14.91;65.17
46598;BME280;32318;48.858;8.252;2023-04-29T15:15:42;100441.31;;;14.86;65.15
46598;BME280;32318;48.858;8.252;2023-04-29T15:23:42;100453.53;;;14.73;65.95
46598;BME280;32318;48.858;8.252;2023-04-29T15:31:43;100462.41;;;14.59;66.11
46598;BME280;32318;48.858;8.252;2023-04-29T15:39:43;100464.34;;;14.50;65.32
46598;BME280;32318;48.858;8.252;2023-04-29T15:47:44;100470.25;;;14.31;66.81
46598;BME280;32318;48.858;8.252;2023-04-29T15:55:46;100472.47;;;14.27;66.21
46598;BME280;32318;48.858;8.252;2023-04-29T16:03:46;100464.59;;;14.25;64.90
46598;BME280;32318;48.858;8.252;2023-04-29T16:11:46;100470.31;;;14.07;65.80
46598;BME280;32318;48.858;8.252;2023-04-29T16:19:46;100472.88;;;14.01;66.60
46598;BME280;32318;48.858;8.252;2023-04-29T16:27:47;100478.25;;;14.01;66.86
46598;BME280;32318;48.858;8.252;2023-04-29T16:35:47;100480.59;;;14.04;66.60
46598;BME280;32318;48.858;8.252;2023-04-29T16:43:48;100479.94;;;14.02;66.29
46598;BME280;32318;48.858;8.252;2023-04-29T16:51:48;100481.28;;;13.98;67.28
46598;BME280;32318;48.858;8.252;2023-04-29T16:59:49;100478.53;;;14.06;66.25
46598;BME280;32318;48.858;8.252;2023-04-29T17:07:49;100483.34;;;13.95;66.41
46598;BME280;32318;48.858;8.252;2023-04-29T17:15:49;100484.81;;;13.98;66.20
46598;BME280;32318;48.858;8.252;2023-04-29T17:23:51;100476.50;;;14.08;67.54
46598;BME280;32318;48.858;8.252;2023-04-29T17:31:52;100471.59;;;14.11;67.08
46598;BME280;32318;48.858;8.252;2023-04-29T17:39:58;100480.19;;;14.07;66.68
46598;BME280;32318;48.858;8.252;2023-04-29T17:47:59;100498.00;;;14.08;67.08
46598;BME280;32318;48.858;8.252;2023-04-29T17:55:59;100493.47;;;14.08;67.20
46598;BME280;32318;48.858;8.252;2023-04-29T18:04:00;100496.78;;;14.10;67.73
46598;BME280;32318;48.858;8.252;2023-04-29T18:12:00;100496.25;;;14.15;67.91
46598;BME280;32318;48.858;8.252;2023-04-29T18:20:01;100496.31;;;14.07;68.45
46598;BME280;32318;48.858;8.252;2023-04-29T18:28:01;100504.38;;;14.07;68.47
46598;BME280;32318;48.858;8.252;2023-04-29T18:36:04;100505.16;;;13.92;69.56
46598;BME280;32318;48.858;8.252;2023-04-29T18:44:04;100508.25;;;13.81;70.02
46598;BME280;32318;48.858;8.252;2023-04-29T18:52:05;100514.41;;;13.67;70.92
46598;BME280;32318;48.858;8.252;2023-04-29T19:00:05;100526.53;;;13.54;71.50
46598;BME280;32318;48.858;8.252;2023-04-29T19:08:06;100533.31;;;13.42;72.28
46598;BME280;32318;48.858;8.252;2023-04-29T19:16:07;100545.53;;;13.44;72.98
46598;BME280;32318;48.858;8.252;2023-04-29T19:24:07;100545.72;;;13.43;72.85
46598;BME280;32318;48.858;8.252;2023-04-29T19:32:07;100558.09;;;13.44;72.50
46598;BME280;32318;48.858;8.252;2023-04-29T19:40:08;100560.50;;;13.39;73.22
46598;BME280;32318;48.858;8.252;2023-04-29T19:48:09;100560.78;;;13.36;73.11
46598;BME280;32318;48.858;8.252;2023-04-29T19:56:10;100566.19;;;13.27;73.46
46598;BME280;32318;48.858;8.252;2023-04-29T20:04:10;100571.06;;;13.24;73.98
46598;BME280;32318;48.858;8.252;2023-04-29T20:12:10;100577.28;;;13.24;73.99
46598;BME280;32318;48.858;8.252;2023-04-29T20:20:11;100586.34;;;13.23;74.31
46598;BME280;32318;48.858;8.252;2023-04-29T20:28:11;100592.38;;;13.25;74.36
46598;BME280;32318;48.858;8.252;2023-04-29T20:36:11;100582.69;;;13.16;72.66
46598;BME280;32318;48.858;8.252;2023-04-29T20:44:12;100576.50;;;13.07;72.28
46598;BME280;32318;48.858;8.252;2023-04-29T20:52:12;100582.22;;;12.87;72.73
46598;BME280;32318;48.858;8.252;2023-04-29T21:00:12;100586.78;;;12.79;72.97
46598;BME280;32318;48.858;8.252;2023-04-29T21:08:14;100588.28;;;12.73;73.39
46598;BME280;32318;48.858;8.252;2023-04-29T21:16:17;100589.47;;;12.70;73.76
46598;BME280;32318;48.858;8.252;2023-04-29T21:24:18;100591.16;;;12.63;74.06
46598;BME280;32318;48.858;8.252;2023-04-29T21:32:18;100595.53;;;12.64;74.25
46598;BME280;32318;48.858;8.252;2023-04-29T21:40:20;100597.19;;;12.65;74.54
46598;BME280;32318;48.858;8.252;2023-04-29T21:48:21;100603.19;;;12.67;74.79
46598;BME280;32318;48.858;8.252;2023-04-29T21:56:24;100590.81;;;12.58;74.86
46598;BME280;32318;48.858;8.252;2023-04-29T22:04:27;100588.16;;;12.50;74.93
46598;BME280;32318;48.858;8.252;2023-04-29T22:12:28;100589.16;;;12.40;75.38
46598;BME280;32318;48.858;8.252;2023-04-29T22:20:28;100595.34;;;12.41;75.89
46598;BME280;32318;48.858;8.252;2023-04-29T22:28:29;100595.84;;;12.36;75.84
46598;BME280;32318;48.858;8.252;2023-04-29T22:36:29;100599.84;;;12.32;75.94
46598;BME280;32318;48.858;8.252;2023-04-29T22:44:30;100602.88;;;12.21;76.40
46598;BME280;32318;48.858;8.252;2023-04-29T22:52:30;100599.84;;;12.16;76.94
46598;BME280;32318;48.858;8.252;2023-04-29T23:00:31;100593.16;;;12.12;77.12
46598;BME280;32318;48.858;8.252;2023-04-29T23:08:32;100603.88;;;12.03;77.80
46598;BME280;32318;48.858;8.252;2023-04-29T23:16:32;100606.81;;;11.92;78.28
46598;BME280;32318;48.858;8.252;2023-04-29T23:24:33;100616.50;;;11.85;78.50
46598;BME280;32318;48.858;8.252;2023-04-29T23:32:34;100619.84;;;11.79;78.98
46598;BME280;32318;48.858;8.252;2023-04-29T23:40:34;100619.50;;;11.82;79.03
46598;BME280;32318;48.858;8.252;2023-04-29T23:48:35;100621.34;;;11.89;79.77
46598;BME280;32318;48.858;8.252;2023-04-29T23:56:39;100628.94;;;12.02;80.05
